sensor_id;sensor_type;location;lat;lon;timestamp;P1;durP1;ratioP1;P2;durP2;ratioP2
52057;SDS011;38063;53.210;6.504;2023-08-08T00:19:11;5.60;;;2.92;;
52057;SDS011;38063;53.210;6.504;2023-08-08T00:21:36;5.38;;;2.72;;
52057;SDS011;38063;53.210;6.504;2023-08-08T00:24:02;9.43;;;3.28;;
52057;SDS011;38063;53.210;6.504;2023-08-08T00:26:27;5.50;;;2.92;;
52057;SDS011;38063;53.210;6.504;2023-08-08T00:28:53;7.38;;;2.70;;
52057;SDS011;38063;53.210;6.504;2023-08-08T00:31:19;4.95;;;2.60;;
52057;SDS011;38063;53.210;6.504;2023-08-08T00:33:45;6.00;;;2.95;;
52057;SDS011;38063;53.210;6.504;2023-08-08T00:36:10;4.15;;;2.72;;
52057;SDS011;38063;53.210;6.504;2023-08-08T00:38:36;10.90;;;3.33;;
52057;SDS011;38063;53.210;6.504;2023-08-08T00:41:01;6.82;;;3.20;;
52057;SDS011;38063;53.210;6.504;2023-08-08T00:43:29;4.45;;;2.72;;
52057;SDS011;38063;53.210;6.504;2023-08-08T00:45:55;9.75;;;2.90;;
52057;SDS011;38063;53.210;6.504;2023-08-08T00:48:22;6.97;;;2.90;;
52057;SDS011;38063;53.210;6.504;2023-08-08T00:50:48;8.35;;;3.13;;
52057;SDS011;38063;53.210;6.504;2023-08-08T00:53:16;7.07;;;3.05;;
52057;SDS011;38063;53.210;6.504;2023-08-08T00:55:44;8.70;;;2.90;;
52057;SDS011;38063;53.210;6.504;2023-08-08T00:58:11;5.35;;;2.90;;
52057;SDS011;38063;53.210;6.504;2023-08-08T01:00:37;7.55;;;3.00;;
52057;SDS011;38063;53.210;6.504;2023-08-08T01:03:03;8.52;;;3.20;;
52057;SDS011;38063;53.210;6.504;2023-08-08T01:05:30;7.05;;;2.78;;
52057;SDS011;38063;53.210;6.504;2023-08-08T01:10:32;7.55;;;3.03;;
52057;SDS011;38063;53.210;6.504;2023-08-08T01:13:18;5.95;;;3.10;;
52057;SDS011;38063;53.210;6.504;2023-08-08T01:15:47;5.35;;;3.22;;
52057;SDS011;38063;53.210;6.504;2023-08-08T01:18:14;5.75;;;3.00;;
52057;SDS011;38063;53.210;6.504;2023-08-08T01:20:41;7.43;;;3.08;;
52057;SDS011;38063;53.210;6.504;2023-08-08T01:23:19;9.50;;;2.92;;
52057;SDS011;38063;53.210;6.504;2023-08-08T01:26:07;8.90;;;3.42;;
52057;SDS011;38063;53.210;6.504;2023-08-08T01:28:33;5.03;;;2.38;;
52057;SDS011;38063;53.210;6.504;2023-08-08T01:31:00;4.88;;;2.92;;
52057;SDS011;38063;53.210;6.504;2023-08-08T01:33:25;6.55;;;3.00;;
52057;SDS011;38063;53.210;6.504;2023-08-08T01:35:56;7.90;;;2.78;;
52057;SDS011;38063;53.210;6.504;2023-08-08T01:41:01;9.48;;;2.92;;
52057;SDS011;38063;53.210;6.504;2023-08-08T01:43:30;7.63;;;2.90;;
52057;SDS011;38063;53.210;6.504;2023-08-08T01:45:58;6.15;;;2.70;;
52057;SDS011;38063;53.210;6.504;2023-08-08T01:48:25;8.00;;;3.10;;
52057;SDS011;38063;53.210;6.504;2023-08-08T01:50:52;7.03;;;2.92;;
52057;SDS011;38063;53.210;6.504;2023-08-08T01:53:18;6.78;;;2.72;;
52057;SDS011;38063;53.210;6.504;2023-08-08T01:55:43;7.22;;;2.53;;
52057;SDS011;38063;53.210;6.504;2023-08-08T01:58:09;4.38;;;2.95;;
52057;SDS011;38063;53.210;6.504;2023-08-08T02:00:35;6.00;;;2.65;;
52057;SDS011;38063;53.210;6.504;2023-08-08T02:03:01;5.47;;;2.80;;
52057;SDS011;38063;53.210;6.504;2023-08-08T02:05:28;5.05;;;3.00;;
52057;SDS011;38063;53.210;6.504;2023-08-08T02:07:53;7.60;;;2.55;;
52057;SDS011;38063;53.210;6.504;2023-08-08T02:10:19;9.10;;;2.92;;
52057;SDS011;38063;53.210;6.504;2023-08-08T02:12:45;7.90;;;2.90;;
52057;SDS011;38063;53.210;6.504;2023-08-08T02:15:10;5.95;;;2.97;;
52057;SDS011;38063;53.210;6.504;2023-08-08T02:17:37;5.63;;;2.78;;
52057;SDS011;38063;53.210;6.504;2023-08-08T02:20:03;7.75;;;3.15;;
52057;SDS011;38063;53.210;6.504;2023-08-08T02:22:30;8.38;;;2.72;;
52057;SDS011;38063;53.210;6.504;2023-08-08T02:24:56;5.93;;;3.53;;
52057;SDS011;38063;53.210;6.504;2023-08-08T02:27:21;7.25;;;3.10;;
52057;SDS011;38063;53.210;6.504;2023-08-08T02:29:47;7.20;;;3.03;;
52057;SDS011;38063;53.210;6.504;2023-08-08T02:32:12;10.10;;;3.10;;
52057;SDS011;38063;53.210;6.504;2023-08-08T02:34:38;10.15;;;3.05;;
52057;SDS011;38063;53.210;6.504;2023-08-08T02:37:04;8.02;;;3.10;;
52057;SDS011;38063;53.210;6.504;2023-08-08T02:39:30;5.13;;;2.47;;
52057;SDS011;38063;53.210;6.504;2023-08-08T02:41:55;6.97;;;3.22;;
52057;SDS011;38063;53.210;6.504;2023-08-08T02:44:21;6.65;;;3.15;;
52057;SDS011;38063;53.210;6.504;2023-08-08T02:46:47;5.80;;;2.95;;
52057;SDS011;38063;53.210;6.504;2023-08-08T02:49:13;7.15;;;2.65;;
52057;SDS011;38063;53.210;6.504;2023-08-08T02:51:39;6.82;;;2.80;;
52057;SDS011;38063;53.210;6.504;2023-08-08T02:54:05;5.07;;;2.50;;
52057;SDS011;38063;53.210;6.504;2023-08-08T02:56:31;11.57;;;3.10;;
52057;SDS011;38063;53.210;6.504;2023-08-08T02:58:56;6.13;;;2.30;;
52057;SDS011;38063;53.210;6.504;2023-08-08T03:01:23;4.53;;;2.28;;
52057;SDS011;38063;53.210;6.504;2023-08-08T03:03:49;6.95;;;2.95;;
52057;SDS011;38063;53.210;6.504;2023-08-08T03:06:15;6.90;;;2.78;;
52057;SDS011;38063;53.210;6.504;2023-08-08T03:08:40;8.15;;;2.70;;
52057;SDS011;38063;53.210;6.504;2023-08-08T03:11:06;4.20;;;2.30;;
52057;SDS011;38063;53.210;6.504;2023-08-08T03:13:32;7.20;;;2.25;;
52057;SDS011;38063;53.210;6.504;2023-08-08T03:15:57;7.47;;;2.10;;
52057;SDS011;38063;53.210;6.504;2023-08-08T03:18:23;7.13;;;2.00;;
52057;SDS011;38063;53.210;6.504;2023-08-08T03:20:51;7.07;;;2.10;;
52057;SDS011;38063;53.210;6.504;2023-08-08T03:23:17;3.20;;;1.90;;
52057;SDS011;38063;53.210;6.504;2023-08-08T03:25:42;5.70;;;1.90;;
52057;SDS011;38063;53.210;6.504;2023-08-08T03:28:08;3.22;;;1.48;;
52057;SDS011;38063;53.210;6.504;2023-08-08T03:30:35;4.82;;;1.88;;
52057;SDS011;38063;53.210;6.504;2023-08-08T03:33:02;6.03;;;1.75;;
52057;SDS011;38063;53.210;6.504;2023-08-08T03:35:28;2.47;;;1.30;;
52057;SDS011;38063;53.210;6.504;2023-08-08T03:37:54;5.50;;;1.70;;
52057;SDS011;38063;53.210;6.504;2023-08-08T03:40:19;5.22;;;1.75;;
52057;SDS011;38063;53.210;6.504;2023-08-08T03:42:45;5.82;;;1.67;;
52057;SDS011;38063;53.210;6.504;2023-08-08T03:45:11;5.85;;;1.55;;
52057;SDS011;38063;53.210;6.504;2023-08-08T03:47:36;5.43;;;1.58;;
52057;SDS011;38063;53.210;6.504;2023-08-08T03:50:02;4.05;;;1.60;;
52057;SDS011;38063;53.210;6.504;2023-08-08T03:52:29;4.70;;;1.70;;
52057;SDS011;38063;53.210;6.504;2023-08-08T03:54:56;3.30;;;1.50;;
52057;SDS011;38063;53.210;6.504;2023-08-08T03:57:21;2.95;;;1.50;;
52057;SDS011;38063;53.210;6.504;2023-08-08T03:59:47;2.83;;;1.58;;
52057;SDS011;38063;53.210;6.504;2023-08-08T04:02:13;4.85;;;2.17;;
52057;SDS011;38063;53.210;6.504;2023-08-08T04:04:39;5.97;;;1.50;;
52057;SDS011;38063;53.210;6.504;2023-08-08T04:07:04;5.88;;;1.70;;
52057;SDS011;38063;53.210;6.504;2023-08-08T04:09:30;8.23;;;2.03;;
52057;SDS011;38063;53.210;6.504;2023-08-08T04:11:56;4.50;;;1.40;;
52057;SDS011;38063;53.210;6.504;2023-08-08T04:14:22;5.97;;;1.27;;
52057;SDS011;38063;53.210;6.504;2023-08-08T04:16:47;5.03;;;1.55;;
52057;SDS011;38063;53.210;6.504;2023-08-08T04:19:13;8.90;;;1.73;;
52057;SDS011;38063;53.210;6.504;2023-08-08T04:21:39;5.15;;;1.65;;
52057;SDS011;38063;53.210;6.504;2023-08-08T04:24:04;4.85;;;1.77;;
52057;SDS011;38063;53.210;6.504;2023-08-08T04:26:32;6.85;;;1.73;;
52057;SDS011;38063;53.210;6.504;2023-08-08T04:28:58;6.38;;;1.50;;
52057;SDS011;38063;53.210;6.504;2023-08-08T04:31:24;6.72;;;1.80;;
52057;SDS011;38063;53.210;6.504;2023-08-08T04:33:51;7.50;;;1.65;;
52057;SDS011;38063;53.210;6.504;2023-08-08T04:36:20;3.30;;;1.50;;
52057;SDS011;38063;53.210;6.504;2023-08-08T04:38:46;5.70;;;1.83;;
52057;SDS011;38063;53.210;6.504;2023-08-08T04:41:12;3.72;;;1.63;;
52057;SDS011;38063;53.210;6.504;2023-08-08T04:43:37;9.02;;;1.40;;
52057;SDS011;38063;53.210;6.504;2023-08-08T04:46:03;4.40;;;2.10;;
52057;SDS011;38063;53.210;6.504;2023-08-08T04:48:28;4.45;;;1.42;;
52057;SDS011;38063;53.210;6.504;2023-08-08T04:50:54;5.50;;;1.50;;
52057;SDS011;38063;53.210;6.504;2023-08-08T04:53:20;5.32;;;1.85;;
52057;SDS011;38063;53.210;6.504;2023-08-08T04:55:45;4.40;;;1.50;;
52057;SDS011;38063;53.210;6.504;2023-08-08T04:58:11;7.03;;;1.60;;
52057;SDS011;38063;53.210;6.504;2023-08-08T05:00:36;6.30;;;1.60;;
52057;SDS011;38063;53.210;6.504;2023-08-08T05:03:02;6.47;;;1.60;;
52057;SDS011;38063;53.210;6.504;2023-08-08T05:05:28;2.53;;;1.30;;
52057;SDS011;38063;53.210;6.504;2023-08-08T05:07:54;7.38;;;1.52;;
52057;SDS011;38063;53.210;6.504;2023-08-08T05:10:19;7.30;;;2.30;;
52057;SDS011;38063;53.210;6.504;2023-08-08T05:12:45;4.35;;;1.70;;
52057;SDS011;38063;53.210;6.504;2023-08-08T05:15:11;4.60;;;1.60;;
52057;SDS011;38063;53.210;6.504;2023-08-08T05:17:36;7.78;;;1.88;;
52057;SDS011;38063;53.210;6.504;2023-08-08T05:20:02;8.32;;;1.83;;
52057;SDS011;38063;53.210;6.504;2023-08-08T05:22:28;5.40;;;2.65;;
52057;SDS011;38063;53.210;6.504;2023-08-08T05:24:54;5.10;;;1.40;;
52057;SDS011;38063;53.210;6.504;2023-08-08T05:27:20;6.22;;;1.48;;
52057;SDS011;38063;53.210;6.504;2023-08-08T05:29:45;6.65;;;1.90;;
52057;SDS011;38063;53.210;6.504;2023-08-08T05:32:11;6.53;;;1.73;;
52057;SDS011;38063;53.210;6.504;2023-08-08T05:34:37;15.88;;;3.58;;
52057;SDS011;38063;53.210;6.504;2023-08-08T05:37:02;9.10;;;1.83;;
52057;SDS011;38063;53.210;6.504;2023-08-08T05:39:29;5.95;;;1.17;;
52057;SDS011;38063;53.210;6.504;2023-08-08T05:41:55;3.70;;;1.38;;
52057;SDS011;38063;53.210;6.504;2023-08-08T05:44:21;3.85;;;1.20;;
52057;SDS011;38063;53.210;6.504;2023-08-08T05:46:47;6.30;;;2.47;;
52057;SDS011;38063;53.210;6.504;2023-08-08T05:49:12;6.50;;;1.30;;
52057;SDS011;38063;53.210;6.504;2023-08-08T05:51:39;5.65;;;1.40;;
52057;SDS011;38063;53.210;6.504;2023-08-08T05:54:05;6.47;;;2.15;;
52057;SDS011;38063;53.210;6.504;2023-08-08T05:56:35;11.55;;;2.10;;
52057;SDS011;38063;53.210;6.504;2023-08-08T05:59:01;4.90;;;1.38;;
52057;SDS011;38063;53.210;6.504;2023-08-08T06:01:27;5.18;;;1.50;;
52057;SDS011;38063;53.210;6.504;2023-08-08T06:03:53;6.90;;;1.50;;
52057;SDS011;38063;53.210;6.504;2023-08-08T06:06:19;4.35;;;1.20;;
52057;SDS011;38063;53.210;6.504;2023-08-08T06:08:44;7.43;;;1.30;;
52057;SDS011;38063;53.210;6.504;2023-08-08T06:11:10;5.97;;;1.40;;
52057;SDS011;38063;53.210;6.504;2023-08-08T06:13:36;5.78;;;1.38;;
52057;SDS011;38063;53.210;6.504;2023-08-08T06:16:02;5.13;;;1.30;;
52057;SDS011;38063;53.210;6.504;2023-08-08T06:18:31;4.22;;;1.05;;
52057;SDS011;38063;53.210;6.504;2023-08-08T06:20:58;5.60;;;1.13;;
52057;SDS011;38063;53.210;6.504;2023-08-08T06:23:23;7.10;;;1.60;;
52057;SDS011;38063;53.210;6.504;2023-08-08T06:25:49;6.35;;;1.50;;
52057;SDS011;38063;53.210;6.504;2023-08-08T06:28:15;5.57;;;1.30;;
52057;SDS011;38063;53.210;6.504;2023-08-08T06:30:40;3.30;;;1.23;;
52057;SDS011;38063;53.210;6.504;2023-08-08T06:33:06;4.63;;;1.38;;
52057;SDS011;38063;53.210;6.504;2023-08-08T06:35:32;7.78;;;1.20;;
52057;SDS011;38063;53.210;6.504;2023-08-08T06:37:57;6.13;;;1.48;;
52057;SDS011;38063;53.210;6.504;2023-08-08T06:40:23;9.48;;;1.20;;
52057;SDS011;38063;53.210;6.504;2023-08-08T06:42:49;6.30;;;1.20;;
52057;SDS011;38063;53.210;6.504;2023-08-08T06:45:14;3.50;;;1.20;;
52057;SDS011;38063;53.210;6.504;2023-08-08T06:47:40;4.97;;;1.20;;
52057;SDS011;38063;53.210;6.504;2023-08-08T06:50:09;4.97;;;1.17;;
52057;SDS011;38063;53.210;6.504;2023-08-08T06:52:35;4.25;;;1.20;;
52057;SDS011;38063;53.210;6.504;2023-08-08T06:55:00;5.22;;;1.38;;
52057;SDS011;38063;53.210;6.504;2023-08-08T06:57:26;5.60;;;1.02;;
52057;SDS011;38063;53.210;6.504;2023-08-08T06:59:52;6.35;;;1.23;;
52057;SDS011;38063;53.210;6.504;2023-08-08T07:02:18;6.20;;;1.27;;
52057;SDS011;38063;53.210;6.504;2023-08-08T07:04:45;9.02;;;0.98;;
52057;SDS011;38063;53.210;6.504;2023-08-08T07:07:11;5.22;;;1.08;;
52057;SDS011;38063;53.210;6.504;2023-08-08T07:09:37;4.18;;;1.17;;
52057;SDS011;38063;53.210;6.504;2023-08-08T07:12:03;4.00;;;1.13;;
52057;SDS011;38063;53.210;6.504;2023-08-08T07:14:29;10.15;;;1.20;;
52057;SDS011;38063;53.210;6.504;2023-08-08T07:16:55;6.72;;;1.33;;
52057;SDS011;38063;53.210;6.504;2023-08-08T07:19:21;2.55;;;1.00;;
52057;SDS011;38063;53.210;6.504;2023-08-08T07:21:47;4.75;;;0.93;;
52057;SDS011;38063;53.210;6.504;2023-08-08T07:24:12;3.85;;;0.98;;
52057;SDS011;38063;53.210;6.504;2023-08-08T07:26:38;5.03;;;1.08;;
52057;SDS011;38063;53.210;6.504;2023-08-08T07:29:04;6.97;;;1.05;;
52057;SDS011;38063;53.210;6.504;2023-08-08T07:31:31;8.32;;;1.20;;
52057;SDS011;38063;53.210;6.504;2023-08-08T07:33:57;5.40;;;1.52;;
52057;SDS011;38063;53.210;6.504;2023-08-08T07:36:23;2.40;;;1.13;;
52057;SDS011;38063;53.210;6.504;2023-08-08T07:38:48;3.78;;;0.95;;
52057;SDS011;38063;53.210;6.504;2023-08-08T07:41:14;5.90;;;0.93;;
52057;SDS011;38063;53.210;6.504;2023-08-08T07:43:40;3.22;;;1.27;;
52057;SDS011;38063;53.210;6.504;2023-08-08T07:46:05;3.33;;;1.15;;
52057;SDS011;38063;53.210;6.504;2023-08-08T07:48:31;6.07;;;1.10;;
52057;SDS011;38063;53.210;6.504;2023-08-08T07:50:57;4.75;;;1.42;;
52057;SDS011;38063;53.210;6.504;2023-08-08T07:53:23;14.10;;;1.35;;
52057;SDS011;38063;53.210;6.504;2023-08-08T07:55:48;6.68;;;1.60;;
52057;SDS011;38063;53.210;6.504;2023-08-08T07:58:14;3.35;;;1.05;;
52057;SDS011;38063;53.210;6.504;2023-08-08T08:00:39;4.45;;;1.20;;
52057;SDS011;38063;53.210;6.504;2023-08-08T08:03:06;4.13;;;1.33;;
52057;SDS011;38063;53.210;6.504;2023-08-08T08:05:31;5.47;;;1.20;;
52057;SDS011;38063;53.210;6.504;2023-08-08T08:07:59;6.07;;;1.02;;
52057;SDS011;38063;53.210;6.504;2023-08-08T08:10:25;5.20;;;0.90;;
52057;SDS011;38063;53.210;6.504;2023-08-08T08:12:51;5.95;;;1.02;;
52057;SDS011;38063;53.210;6.504;2023-08-08T08:15:23;6.03;;;1.00;;
52057;SDS011;38063;53.210;6.504;2023-08-08T08:17:49;6.50;;;1.20;;
52057;SDS011;38063;53.210;6.504;2023-08-08T08:20:15;7.60;;;1.80;;
52057;SDS011;38063;53.210;6.504;2023-08-08T08:22:41;7.45;;;1.10;;
52057;SDS011;38063;53.210;6.504;2023-08-08T08:25:07;4.45;;;0.93;;
52057;SDS011;38063;53.210;6.504;2023-08-08T08:27:34;6.88;;;1.20;;
52057;SDS011;38063;53.210;6.504;2023-08-08T08:30:01;5.15;;;1.13;;
52057;SDS011;38063;53.210;6.504;2023-08-08T08:32:35;6.32;;;1.33;;
52057;SDS011;38063;53.210;6.504;2023-08-08T08:35:01;8.43;;;1.38;;
52057;SDS011;38063;53.210;6.504;2023-08-08T08:37:29;3.85;;;1.00;;
52057;SDS011;38063;53.210;6.504;2023-08-08T08:39:55;5.28;;;1.20;;
52057;SDS011;38063;53.210;6.504;2023-08-08T08:42:21;5.80;;;1.10;;
52057;SDS011;38063;53.210;6.504;2023-08-08T08:44:48;5.88;;;1.30;;
52057;SDS011;38063;53.210;6.504;2023-08-08T08:47:15;8.15;;;1.65;;
52057;SDS011;38063;53.210;6.504;2023-08-08T08:49:44;3.05;;;0.90;;
52057;SDS011;38063;53.210;6.504;2023-08-08T08:52:10;4.28;;;1.20;;
52057;SDS011;38063;53.210;6.504;2023-08-08T08:54:37;7.65;;;1.50;;
52057;SDS011;38063;53.210;6.504;2023-08-08T08:57:03;3.38;;;1.00;;
52057;SDS011;38063;53.210;6.504;2023-08-08T08:59:29;8.90;;;1.20;;
52057;SDS011;38063;53.210;6.504;2023-08-08T09:01:55;5.55;;;1.00;;
52057;SDS011;38063;53.210;6.504;2023-08-08T09:04:22;2.90;;;0.98;;
52057;SDS011;38063;53.210;6.504;2023-08-08T09:06:48;10.10;;;1.13;;
52057;SDS011;38063;53.210;6.504;2023-08-08T09:09:16;3.22;;;1.00;;
52057;SDS011;38063;53.210;6.504;2023-08-08T09:11:45;6.10;;;1.23;;
52057;SDS011;38063;53.210;6.504;2023-08-08T09:14:21;5.53;;;1.13;;
52057;SDS011;38063;53.210;6.504;2023-08-08T09:16:48;3.78;;;0.95;;
52057;SDS011;38063;53.210;6.504;2023-08-08T09:19:15;5.80;;;1.02;;
52057;SDS011;38063;53.210;6.504;2023-08-08T09:21:42;4.00;;;0.88;;
52057;SDS011;38063;53.210;6.504;2023-08-08T09:24:09;3.58;;;0.90;;
52057;SDS011;38063;53.210;6.504;2023-08-08T09:26:34;6.88;;;1.00;;
52057;SDS011;38063;53.210;6.504;2023-08-08T09:29:01;4.43;;;1.15;;
52057;SDS011;38063;53.210;6.504;2023-08-08T09:31:28;5.55;;;1.08;;
52057;SDS011;38063;53.210;6.504;2023-08-08T09:33:55;3.88;;;0.80;;
52057;SDS011;38063;53.210;6.504;2023-08-08T09:36:22;7.43;;;1.25;;
52057;SDS011;38063;53.210;6.504;2023-08-08T09:38:49;5.78;;;0.82;;
52057;SDS011;38063;53.210;6.504;2023-08-08T09:41:14;2.63;;;0.98;;
52057;SDS011;38063;53.210;6.504;2023-08-08T09:43:43;5.70;;;0.93;;
52057;SDS011;38063;53.210;6.504;2023-08-08T09:46:12;3.63;;;0.70;;
52057;SDS011;38063;53.210;6.504;2023-08-08T09:48:39;4.53;;;1.10;;
52057;SDS011;38063;53.210;6.504;2023-08-08T09:51:06;4.30;;;0.93;;
52057;SDS011;38063;53.210;6.504;2023-08-08T09:53:32;4.03;;;1.05;;
52057;SDS011;38063;53.210;6.504;2023-08-08T09:55:58;2.95;;;0.70;;
52057;SDS011;38063;53.210;6.504;2023-08-08T09:58:28;5.50;;;1.00;;
52057;SDS011;38063;53.210;6.504;2023-08-08T10:00:53;4.03;;;1.20;;
52057;SDS011;38063;53.210;6.504;2023-08-08T10:03:19;4.90;;;1.20;;
52057;SDS011;38063;53.210;6.504;2023-08-08T10:05:47;3.10;;;1.13;;
52057;SDS011;38063;53.210;6.504;2023-08-08T10:08:16;5.53;;;0.90;;
52057;SDS011;38063;53.210;6.504;2023-08-08T10:10:44;2.95;;;0.70;;
52057;SDS011;38063;53.210;6.504;2023-08-08T10:13:18;3.78;;;1.08;;
52057;SDS011;38063;53.210;6.504;2023-08-08T10:15:46;6.10;;;1.80;;
52057;SDS011;38063;53.210;6.504;2023-08-08T10:18:12;3.70;;;0.98;;
52057;SDS011;38063;53.210;6.504;2023-08-08T10:20:38;2.80;;;1.10;;
52057;SDS011;38063;53.210;6.504;2023-08-08T10:23:07;7.40;;;1.05;;
52057;SDS011;38063;53.210;6.504;2023-08-08T10:25:32;3.42;;;1.00;;
52057;SDS011;38063;53.210;6.504;2023-08-08T10:28:11;3.40;;;1.02;;
52057;SDS011;38063;53.210;6.504;2023-08-08T10:30:55;4.43;;;1.10;;
52057;SDS011;38063;53.210;6.504;2023-08-08T10:33:23;6.88;;;1.25;;
52057;SDS011;38063;53.210;6.504;2023-08-08T10:38:22;6.47;;;1.25;;
52057;SDS011;38063;53.210;6.504;2023-08-08T10:40:53;9.82;;;1.30;;
52057;SDS011;38063;53.210;6.504;2023-08-08T10:43:27;6.25;;;1.27;;
52057;SDS011;38063;53.210;6.504;2023-08-08T10:46:01;4.43;;;1.10;;
52057;SDS011;38063;53.210;6.504;2023-08-08T10:48:28;3.65;;;1.23;;
52057;SDS011;38063;53.210;6.504;2023-08-08T10:50:54;3.22;;;0.95;;
52057;SDS011;38063;53.210;6.504;2023-08-08T10:53:26;4.10;;;1.00;;
52057;SDS011;38063;53.210;6.504;2023-08-08T10:55:59;3.47;;;1.08;;
52057;SDS011;38063;53.210;6.504;2023-08-08T10:58:37;3.28;;;1.38;;
52057;SDS011;38063;53.210;6.504;2023-08-08T11:01:04;1.95;;;0.70;;
52057;SDS011;38063;53.210;6.504;2023-08-08T11:03:33;3.40;;;0.80;;
52057;SDS011;38063;53.210;6.504;2023-08-08T11:06:03;3.63;;;0.90;;
52057;SDS011;38063;53.210;6.504;2023-08-08T11:08:31;3.42;;;0.80;;
52057;SDS011;38063;53.210;6.504;2023-08-08T11:10:57;9.60;;;0.90;;
52057;SDS011;38063;53.210;6.504;2023-08-08T11:13:24;5.63;;;1.30;;
52057;SDS011;38063;53.210;6.504;2023-08-08T11:15:50;4.43;;;1.17;;
52057;SDS011;38063;53.210;6.504;2023-08-08T11:18:15;4.60;;;1.10;;
52057;SDS011;38063;53.210;6.504;2023-08-08T11:20:41;5.40;;;1.08;;
52057;SDS011;38063;53.210;6.504;2023-08-08T11:23:07;7.50;;;1.17;;
52057;SDS011;38063;53.210;6.504;2023-08-08T11:25:35;3.28;;;0.75;;
52057;SDS011;38063;53.210;6.504;2023-08-08T11:28:02;3.53;;;0.70;;
52057;SDS011;38063;53.210;6.504;2023-08-08T11:30:28;3.95;;;1.00;;
52057;SDS011;38063;53.210;6.504;2023-08-08T11:32:57;4.57;;;1.10;;
52057;SDS011;38063;53.210;6.504;2023-08-08T11:35:24;3.22;;;1.25;;
52057;SDS011;38063;53.210;6.504;2023-08-08T11:37:52;3.55;;;1.13;;
52057;SDS011;38063;53.210;6.504;2023-08-08T11:40:19;3.38;;;0.90;;
52057;SDS011;38063;53.210;6.504;2023-08-08T11:42:46;4.80;;;0.85;;
52057;SDS011;38063;53.210;6.504;2023-08-08T11:45:12;3.47;;;0.93;;
52057;SDS011;38063;53.210;6.504;2023-08-08T11:47:39;6.80;;;1.00;;
52057;SDS011;38063;53.210;6.504;2023-08-08T11:50:06;4.57;;;1.58;;
52057;SDS011;38063;53.210;6.504;2023-08-08T11:52:34;3.65;;;1.33;;
52057;SDS011;38063;53.210;6.504;2023-08-08T11:55:04;7.68;;;0.98;;
52057;SDS011;38063;53.210;6.504;2023-08-08T11:57:31;3.58;;;1.10;;
52057;SDS011;38063;53.210;6.504;2023-08-08T11:59:58;3.60;;;0.93;;
52057;SDS011;38063;53.210;6.504;2023-08-08T12:02:25;5.90;;;1.05;;
52057;SDS011;38063;53.210;6.504;2023-08-08T12:04:52;3.22;;;0.63;;
52057;SDS011;38063;53.210;6.504;2023-08-08T12:07:18;4.75;;;1.25;;
52057;SDS011;38063;53.210;6.504;2023-08-08T12:09:46;2.28;;;0.80;;
52057;SDS011;38063;53.210;6.504;2023-08-08T12:12:12;4.40;;;0.95;;
52057;SDS011;38063;53.210;6.504;2023-08-08T12:14:39;5.03;;;1.00;;
52057;SDS011;38063;53.210;6.504;2023-08-08T12:17:06;3.92;;;1.08;;
52057;SDS011;38063;53.210;6.504;2023-08-08T12:19:34;3.40;;;1.00;;
52057;SDS011;38063;53.210;6.504;2023-08-08T12:21:59;7.28;;;1.40;;
52057;SDS011;38063;53.210;6.504;2023-08-08T12:24:25;3.60;;;0.88;;
52057;SDS011;38063;53.210;6.504;2023-08-08T12:26:51;5.63;;;1.63;;
52057;SDS011;38063;53.210;6.504;2023-08-08T12:29:16;7.10;;;1.10;;
52057;SDS011;38063;53.210;6.504;2023-08-08T12:31:43;9.52;;;1.25;;
52057;SDS011;38063;53.210;6.504;2023-08-08T12:34:09;3.70;;;1.10;;
52057;SDS011;38063;53.210;6.504;2023-08-08T12:36:35;3.47;;;1.17;;
52057;SDS011;38063;53.210;6.504;2023-08-08T12:39:00;6.45;;;1.20;;
52057;SDS011;38063;53.210;6.504;2023-08-08T12:41:26;3.13;;;0.98;;
52057;SDS011;38063;53.210;6.504;2023-08-08T12:43:54;7.68;;;1.60;;
52057;SDS011;38063;53.210;6.504;2023-08-08T12:46:20;4.35;;;1.10;;
52057;SDS011;38063;53.210;6.504;2023-08-08T12:48:46;4.50;;;1.10;;
52057;SDS011;38063;53.210;6.504;2023-08-08T12:51:11;6.43;;;1.10;;
52057;SDS011;38063;53.210;6.504;2023-08-08T12:53:37;6.47;;;1.02;;
52057;SDS011;38063;53.210;6.504;2023-08-08T12:56:02;3.30;;;0.80;;
52057;SDS011;38063;53.210;6.504;2023-08-08T12:58:29;4.40;;;1.58;;
52057;SDS011;38063;53.210;6.504;2023-08-08T13:00:55;2.60;;;0.68;;
52057;SDS011;38063;53.210;6.504;2023-08-08T13:03:21;5.03;;;1.08;;
52057;SDS011;38063;53.210;6.504;2023-08-08T13:05:46;2.72;;;0.93;;
52057;SDS011;38063;53.210;6.504;2023-08-08T13:08:12;7.45;;;1.25;;
52057;SDS011;38063;53.210;6.504;2023-08-08T13:10:39;4.47;;;0.98;;
52057;SDS011;38063;53.210;6.504;2023-08-08T13:13:05;4.07;;;1.02;;
52057;SDS011;38063;53.210;6.504;2023-08-08T13:15:31;2.63;;;0.98;;
52057;SDS011;38063;53.210;6.504;2023-08-08T13:17:56;1.58;;;0.65;;
52057;SDS011;38063;53.210;6.504;2023-08-08T13:20:22;3.95;;;1.00;;
52057;SDS011;38063;53.210;6.504;2023-08-08T13:22:50;2.00;;;0.70;;
52057;SDS011;38063;53.210;6.504;2023-08-08T13:25:15;5.88;;;1.50;;
52057;SDS011;38063;53.210;6.504;2023-08-08T13:27:43;7.40;;;1.02;;
52057;SDS011;38063;53.210;6.504;2023-08-08T13:30:09;8.75;;;1.15;;
52057;SDS011;38063;53.210;6.504;2023-08-08T13:32:35;5.95;;;1.20;;
52057;SDS011;38063;53.210;6.504;2023-08-08T13:35:01;4.90;;;1.08;;
52057;SDS011;38063;53.210;6.504;2023-08-08T13:37:27;6.72;;;0.90;;
52057;SDS011;38063;53.210;6.504;2023-08-08T13:39:53;7.90;;;1.13;;
52057;SDS011;38063;53.210;6.504;2023-08-08T13:42:19;6.43;;;1.20;;
52057;SDS011;38063;53.210;6.504;2023-08-08T13:44:44;4.50;;;0.75;;
52057;SDS011;38063;53.210;6.504;2023-08-08T13:47:10;4.72;;;0.90;;
52057;SDS011;38063;53.210;6.504;2023-08-08T13:49:36;4.65;;;1.13;;
52057;SDS011;38063;53.210;6.504;2023-08-08T13:52:01;4.57;;;1.00;;
52057;SDS011;38063;53.210;6.504;2023-08-08T13:54:27;5.85;;;1.00;;
52057;SDS011;38063;53.210;6.504;2023-08-08T13:56:53;5.20;;;1.38;;
52057;SDS011;38063;53.210;6.504;2023-08-08T13:59:19;4.13;;;1.10;;
52057;SDS011;38063;53.210;6.504;2023-08-08T14:01:44;4.18;;;1.05;;
52057;SDS011;38063;53.210;6.504;2023-08-08T14:04:10;4.22;;;0.95;;
52057;SDS011;38063;53.210;6.504;2023-08-08T14:06:36;5.13;;;1.13;;
52057;SDS011;38063;53.210;6.504;2023-08-08T14:09:01;8.43;;;1.05;;
52057;SDS011;38063;53.210;6.504;2023-08-08T14:11:28;7.30;;;1.23;;
52057;SDS011;38063;53.210;6.504;2023-08-08T14:13:54;2.85;;;0.80;;
52057;SDS011;38063;53.210;6.504;2023-08-08T14:16:20;5.78;;;1.10;;
52057;SDS011;38063;53.210;6.504;2023-08-08T14:18:45;2.53;;;0.90;;
52057;SDS011;38063;53.210;6.504;2023-08-08T14:21:11;6.22;;;0.95;;
52057;SDS011;38063;53.210;6.504;2023-08-08T14:23:37;3.60;;;0.70;;
52057;SDS011;38063;53.210;6.504;2023-08-08T14:26:02;7.55;;;1.38;;
52057;SDS011;38063;53.210;6.504;2023-08-08T14:28:28;6.97;;;1.20;;
52057;SDS011;38063;53.210;6.504;2023-08-08T14:30:54;2.83;;;0.98;;
52057;SDS011;38063;53.210;6.504;2023-08-08T14:33:19;4.63;;;1.30;;
52057;SDS011;38063;53.210;6.504;2023-08-08T14:35:45;6.63;;;0.90;;
52057;SDS011;38063;53.210;6.504;2023-08-08T14:38:11;5.32;;;1.30;;
52057;SDS011;38063;53.210;6.504;2023-08-08T14:40:36;5.68;;;1.00;;
52057;SDS011;38063;53.210;6.504;2023-08-08T14:43:02;2.42;;;0.90;;
52057;SDS011;38063;53.210;6.504;2023-08-08T14:45:28;3.78;;;1.05;;
52057;SDS011;38063;53.210;6.504;2023-08-08T14:47:54;4.47;;;1.10;;
52057;SDS011;38063;53.210;6.504;2023-08-08T14:50:20;2.85;;;0.88;;
52057;SDS011;38063;53.210;6.504;2023-08-08T14:52:46;6.22;;;1.58;;
52057;SDS011;38063;53.210;6.504;2023-08-08T14:55:12;5.70;;;1.00;;
52057;SDS011;38063;53.210;6.504;2023-08-08T14:57:37;5.25;;;1.00;;
52057;SDS011;38063;53.210;6.504;2023-08-08T15:00:03;4.55;;;1.08;;
52057;SDS011;38063;53.210;6.504;2023-08-08T15:02:31;3.92;;;0.85;;
52057;SDS011;38063;53.210;6.504;2023-08-08T15:04:57;6.65;;;1.17;;
52057;SDS011;38063;53.210;6.504;2023-08-08T15:07:22;4.43;;;1.05;;
52057;SDS011;38063;53.210;6.504;2023-08-08T15:09:48;6.07;;;1.02;;